createdAt,value
2022-11-29T00:00:06.835Z,32.60
2022-11-29T00:00:58.513Z,40.45
2022-11-29T00:01:50.099Z,30.05
2022-11-29T00:02:41.753Z,31.83
2022-11-29T00:03:34.398Z,33.47
2022-11-29T00:04:25.921Z,27.95
2022-11-29T00:05:17.436Z,34.38
2022-11-29T00:06:20.690Z,33.63
2022-11-29T00:07:12.214Z,34.05
2022-11-29T00:08:03.716Z,35.53
2022-11-29T00:08:56.988Z,29.92
2022-11-29T00:09:48.461Z,35.75
2022-11-29T00:10:39.943Z,35.53
2022-11-29T00:11:53.018Z,33.83
2022-11-29T00:12:47.300Z,30.48
2022-11-29T00:13:39.573Z,28.83
2022-11-29T00:14:31.071Z,31.48
2022-11-29T00:15:22.547Z,35.20
2022-11-29T00:16:15.706Z,33.42
2022-11-29T00:17:07.598Z,34.92
2022-11-29T00:17:59.090Z,33.63
2022-11-29T00:18:50.619Z,33.85
2022-11-29T00:19:42.163Z,37.53
2022-11-29T00:20:34.744Z,34.47
2022-11-29T00:21:26.395Z,42.28
2022-11-29T00:22:17.873Z,41.17
2022-11-29T00:23:09.351Z,35.80
2022-11-29T00:24:00.862Z,30.20
2022-11-29T00:24:52.405Z,41.33
2022-11-29T00:25:43.976Z,40.95
2022-11-29T00:26:36.964Z,39.17
2022-11-29T00:27:28.457Z,33.95
2022-11-29T00:28:19.997Z,34.60
2022-11-29T00:29:12.963Z,29.23
2022-11-29T00:30:05.193Z,36.67
2022-11-29T00:30:56.821Z,36.85
2022-11-29T00:31:48.442Z,34.20
2022-11-29T00:32:39.934Z,41.30
2022-11-29T00:33:31.427Z,35.60
2022-11-29T00:34:22.969Z,35.97
2022-11-29T00:35:14.523Z,36.55
2022-11-29T00:36:06.350Z,38.03
2022-11-29T00:36:57.909Z,36.80
2022-11-29T00:37:49.383Z,38.33
2022-11-29T00:38:41.758Z,33.10
2022-11-29T00:39:33.233Z,32.70
2022-11-29T00:40:24.876Z,36.20
2022-11-29T00:41:16.483Z,38.72
2022-11-29T00:42:08.039Z,32.45
2022-11-29T00:42:59.522Z,37.35
2022-11-29T00:43:51.165Z,35.83
2022-11-29T00:44:42.966Z,48.88
2022-11-29T00:45:34.662Z,37.97
2022-11-29T00:46:26.286Z,43.05
2022-11-29T00:47:17.849Z,38.10
2022-11-29T00:48:09.343Z,42.58
2022-11-29T00:49:00.829Z,43.78
2022-11-29T00:49:52.363Z,38.28
2022-11-29T00:50:43.908Z,38.85
2022-11-29T00:51:35.390Z,46.78
2022-11-29T00:52:26.922Z,46.33
2022-11-29T00:53:18.455Z,43.92
2022-11-29T00:54:09.938Z,43.75
2022-11-29T00:55:01.522Z,38.55
2022-11-29T00:55:53.769Z,42.92
2022-11-29T00:56:45.419Z,48.70
2022-11-29T00:57:36.929Z,45.35
2022-11-29T00:58:29.030Z,53.13
2022-11-29T00:59:20.550Z,50.10
2022-11-29T01:00:12.636Z,39.83
2022-11-29T01:01:05.288Z,40.47
2022-11-29T01:01:56.976Z,43.25
2022-11-29T01:02:48.589Z,39.83
2022-11-29T01:03:40.362Z,45.45
2022-11-29T01:04:31.862Z,39.40
2022-11-29T01:05:23.678Z,43.05
2022-11-29T01:06:17.430Z,38.97
2022-11-29T01:07:08.940Z,42.42
2022-11-29T01:08:00.432Z,45.63
2022-11-29T01:08:52.000Z,44.65
2022-11-29T01:09:43.486Z,47.35
2022-11-29T01:10:35.021Z,48.45
2022-11-29T01:11:27.626Z,42.72
2022-11-29T01:12:19.142Z,40.78
2022-11-29T01:13:11.362Z,42.50
2022-11-29T01:14:03.642Z,39.05
2022-11-29T01:14:55.147Z,42.42
2022-11-29T01:15:54.735Z,43.10
2022-11-29T01:16:46.270Z,45.83
2022-11-29T01:17:39.620Z,38.15
2022-11-29T01:18:32.001Z,42.50
2022-11-29T01:19:23.486Z,50.13
2022-11-29T01:20:16.100Z,49.03
2022-11-29T01:21:14.277Z,47.08
2022-11-29T01:22:05.746Z,41.33
2022-11-29T01:22:57.247Z,50.40
2022-11-29T01:23:49.970Z,55.95
2022-11-29T01:24:41.596Z,44.78
2022-11-29T01:25:33.186Z,48.58
2022-11-29T01:26:27.811Z,45.60
2022-11-29T01:27:19.300Z,46.92
2022-11-29T01:28:10.782Z,49.38
2022-11-29T01:29:02.330Z,50.05
2022-11-29T01:29:53.890Z,51.38
2022-11-29T01:30:46.565Z,51.83
2022-11-29T01:31:38.137Z,44.88
2022-11-29T01:32:29.680Z,55.38
2022-11-29T01:33:21.745Z,50.22
2022-11-29T01:34:13.822Z,54.67
2022-11-29T01:35:06.714Z,58.33
2022-11-29T01:35:58.215Z,41.53
2022-11-29T01:36:49.703Z,49.75
2022-11-29T01:37:41.251Z,46.97
2022-11-29T01:38:33.328Z,40.88
2022-11-29T01:39:24.857Z,50.03
2022-11-29T01:40:16.400Z,45.75
2022-11-29T01:41:20.372Z,59.63
2022-11-29T01:42:13.193Z,54.85
2022-11-29T01:43:17.991Z,50.03
2022-11-29T01:44:12.103Z,44.15
2022-11-29T01:45:24.718Z,61.20
2022-11-29T01:46:16.229Z,51.90
2022-11-29T01:47:11.134Z,59.47
2022-11-29T01:48:02.784Z,50.80
2022-11-29T01:48:58.807Z,46.65
2022-11-29T01:49:50.417Z,57.67
2022-11-29T01:50:43.017Z,53.33
2022-11-29T01:51:37.407Z,50.13
2022-11-29T01:52:32.433Z,43.63
2022-11-29T01:53:24.002Z,48.88
2022-11-29T01:54:15.804Z,61.65
2022-11-29T01:55:09.054Z,60.75
2022-11-29T01:56:03.649Z,58.45
2022-11-29T01:56:55.368Z,57.88
2022-11-29T01:57:46.942Z,52.95
2022-11-29T01:58:38.428Z,63.92
2022-11-29T01:59:30.458Z,59.28
2022-11-29T02:00:22.147Z,64.32
2022-11-29T02:01:14.656Z,46.88
2022-11-29T02:02:12.090Z,56.70
2022-11-29T02:03:17.293Z,65.57
2022-11-29T02:04:09.171Z,57.55
2022-11-29T02:05:02.572Z,53.08
2022-11-29T02:05:55.111Z,59.72
2022-11-29T02:06:46.862Z,53.75
2022-11-29T02:07:38.481Z,59.17
2022-11-29T02:08:37.874Z,59.67
2022-11-29T02:09:29.383Z,55.20
2022-11-29T02:10:30.308Z,53.40
2022-11-29T02:11:24.518Z,62.20
2022-11-29T02:12:27.468Z,69.70
2022-11-29T02:13:42.591Z,54.78
2022-11-29T02:14:47.368Z,67.07
2022-11-29T02:15:44.628Z,53.67
2022-11-29T02:16:56.257Z,57.25
2022-11-29T02:17:50.758Z,68.97
2022-11-29T02:19:21.120Z,68.60
2022-11-29T02:20:39.822Z,56.05
2022-11-29T02:22:02.605Z,58.25
2022-11-29T02:23:10.624Z,54.67
2022-11-29T02:24:38.652Z,53.17
2022-11-29T02:26:03.641Z,65.90
2022-11-29T02:27:07.310Z,57.60
2022-11-29T02:28:10.569Z,58.28
2022-11-29T02:29:39.673Z,69.80
2022-11-29T02:32:25.227Z,76.47
2022-11-29T02:33:50.363Z,49.65
2022-11-29T02:35:01.663Z,90.57
2022-11-29T02:36:18.951Z,71.15
2022-11-29T02:37:19.330Z,61.13
2022-11-29T02:38:35.131Z,81.40
2022-11-29T02:39:48.339Z,81.38
2022-11-29T02:40:57.860Z,72.85
2022-11-29T02:41:58.634Z,93.00
2022-11-29T02:43:16.415Z,84.57
2022-11-29T02:44:17.884Z,85.57
2022-11-29T02:45:18.947Z,70.95
2022-11-29T02:46:18.871Z,65.65
2022-11-29T02:47:12.945Z,69.07
2022-11-29T02:48:35.952Z,97.43
2022-11-29T02:49:36.058Z,69.43
2022-11-29T02:50:39.523Z,78.50
2022-11-29T02:51:49.509Z,74.63
2022-11-29T02:53:35.243Z,67.80
2022-11-29T02:54:37.524Z,53.58
2022-11-29T02:55:39.226Z,73.03
2022-11-29T02:56:57.435Z,67.38
2022-11-29T02:58:01.852Z,61.05
2022-11-29T02:59:15.865Z,55.50
2022-11-29T03:00:18.132Z,58.53
2022-11-29T03:01:30.473Z,65.53
2022-11-29T03:02:39.601Z,84.65
2022-11-29T03:03:42.644Z,65.38
2022-11-29T03:06:15.097Z,69.55
2022-11-29T03:07:21.269Z,87.93
2022-11-29T03:08:24.870Z,74.65
2022-11-29T03:09:32.070Z,67.70
2022-11-29T03:10:51.486Z,78.43
2022-11-29T03:11:58.575Z,61.05
2022-11-29T03:12:53.315Z,64.40
2022-11-29T03:14:23.542Z,56.03
2022-11-29T03:15:33.302Z,61.92
2022-11-29T03:16:37.102Z,53.40
2022-11-29T03:17:51.537Z,55.08
2022-11-29T03:19:04.183Z,57.70
2022-11-29T03:20:07.613Z,61.42
2022-11-29T03:21:30.151Z,67.88
2022-11-29T03:22:33.750Z,67.90
2022-11-29T03:23:31.620Z,56.38
2022-11-29T03:24:35.649Z,70.72
2022-11-29T03:25:48.135Z,56.60
2022-11-29T03:26:44.452Z,68.55
2022-11-29T03:28:02.036Z,65.80
2022-11-29T03:29:11.865Z,51.80
2022-11-29T03:30:10.046Z,52.88
2022-11-29T03:31:10.900Z,52.60
2022-11-29T03:32:18.162Z,53.65
2022-11-29T03:33:15.651Z,68.43
2022-11-29T03:34:10.050Z,69.65
2022-11-29T03:35:18.678Z,65.05
2022-11-29T03:36:26.934Z,60.42
2022-11-29T03:37:25.999Z,59.70
2022-11-29T03:38:39.853Z,65.75
2022-11-29T03:39:56.326Z,66.43
2022-11-29T03:40:51.177Z,58.45
2022-11-29T03:42:14.030Z,60.13
2022-11-29T03:43:22.229Z,58.35
2022-11-29T03:44:18.874Z,71.88
2022-11-29T03:45:28.976Z,67.05
2022-11-29T03:46:29.172Z,64.70
2022-11-29T03:47:27.561Z,63.60
2022-11-29T03:48:27.367Z,64.30
2022-11-29T03:49:43.505Z,70.50
2022-11-29T03:50:44.079Z,84.70
2022-11-29T03:51:44.827Z,67.38
2022-11-29T03:52:56.508Z,71.05
2022-11-29T03:54:10.503Z,82.38
2022-11-29T03:55:11.931Z,75.53
2022-11-29T03:56:24.543Z,58.72
2022-11-29T03:57:24.951Z,56.38
2022-11-29T03:58:44.268Z,71.03
2022-11-29T04:00:49.211Z,69.38
2022-11-29T04:02:10.895Z,59.28
2022-11-29T04:03:21.115Z,71.38
2022-11-29T04:04:49.975Z,76.35
2022-11-29T04:06:11.114Z,68.90
2022-11-29T04:07:14.524Z,92.95
2022-11-29T04:08:17.943Z,96.63
2022-11-29T04:09:30.048Z,100.43
2022-11-29T04:10:52.285Z,78.57
2022-11-29T04:11:55.780Z,102.95
2022-11-29T04:13:11.377Z,78.45
2022-11-29T04:14:21.545Z,64.13
2022-11-29T04:15:18.923Z,98.50
2022-11-29T04:16:32.046Z,131.13
2022-11-29T04:17:51.386Z,103.60
2022-11-29T04:19:00.539Z,100.38
2022-11-29T04:20:29.339Z,96.78
2022-11-29T04:21:39.532Z,88.47
2022-11-29T04:22:33.762Z,79.50
2022-11-29T04:23:49.859Z,88.30
2022-11-29T04:25:03.713Z,105.90
2022-11-29T04:26:22.711Z,106.38
2022-11-29T04:27:36.021Z,92.38
2022-11-29T04:28:53.103Z,74.55
2022-11-29T04:29:54.474Z,82.43
2022-11-29T04:31:07.363Z,93.82
2022-11-29T04:32:36.490Z,84.03
2022-11-29T04:35:14.150Z,109.03
2022-11-29T04:36:43.262Z,114.25
2022-11-29T04:38:47.409Z,80.30
2022-11-29T04:40:02.725Z,83.57
2022-11-29T04:41:19.902Z,82.97
2022-11-29T04:42:37.485Z,104.80
2022-11-29T04:43:42.215Z,98.63
2022-11-29T04:44:48.813Z,101.65
2022-11-29T04:46:05.015Z,108.82
2022-11-29T04:47:30.438Z,124.65
2022-11-29T04:48:28.192Z,92.00
2022-11-29T04:49:22.186Z,82.10
2022-11-29T04:50:13.630Z,107.45
2022-11-29T04:51:42.243Z,86.88
2022-11-29T04:52:48.006Z,101.05
2022-11-29T04:53:51.020Z,127.68
2022-11-29T04:54:42.725Z,116.22
2022-11-29T04:56:07.830Z,110.78
2022-11-29T04:57:10.796Z,110.60
2022-11-29T04:58:41.084Z,139.25
2022-11-29T04:59:49.864Z,168.95
2022-11-29T05:00:59.605Z,113.88
2022-11-29T05:02:39.079Z,120.10
2022-11-29T05:03:55.414Z,132.50
2022-11-29T05:05:06.358Z,97.18
2022-11-29T05:07:14.386Z,70.93
2022-11-29T05:08:27.404Z,106.60
2022-11-29T05:09:35.873Z,103.35
2022-11-29T05:11:01.277Z,109.87
2022-11-29T05:12:06.833Z,110.28
2022-11-29T05:13:06.012Z,119.82
2022-11-29T05:14:31.257Z,99.28
2022-11-29T05:15:43.775Z,91.30
2022-11-29T05:17:06.163Z,125.85
2022-11-29T05:18:09.405Z,87.65
2022-11-29T05:19:28.400Z,106.68
2022-11-29T05:20:41.260Z,90.13
2022-11-29T05:22:06.886Z,97.43
2022-11-29T05:22:58.302Z,87.82
2022-11-29T05:24:42.485Z,106.57
2022-11-29T05:26:15.598Z,71.65
2022-11-29T05:27:31.486Z,93.70
2022-11-29T05:29:01.679Z,105.53
2022-11-29T05:29:55.913Z,82.85
2022-11-29T05:31:05.809Z,112.72
2022-11-29T05:32:07.724Z,121.55
2022-11-29T05:33:42.607Z,104.72
2022-11-29T05:35:02.991Z,95.40
2022-11-29T05:36:28.330Z,101.65
2022-11-29T05:37:29.648Z,96.03
2022-11-29T05:39:12.246Z,72.75
2022-11-29T05:40:28.474Z,75.50
2022-11-29T05:41:51.522Z,79.40
2022-11-29T05:43:01.822Z,75.70
2022-11-29T05:44:09.591Z,70.10
2022-11-29T05:45:08.849Z,95.88
2022-11-29T05:46:24.811Z,81.07
2022-11-29T05:47:39.748Z,92.43
2022-11-29T05:48:37.561Z,74.78
2022-11-29T05:49:52.246Z,85.38
2022-11-29T05:50:54.829Z,71.20
2022-11-29T05:52:15.074Z,74.43
2022-11-29T05:53:45.568Z,71.78
2022-11-29T05:54:50.678Z,91.57
2022-11-29T05:56:19.871Z,85.15
2022-11-29T05:58:36.125Z,72.90
2022-11-29T05:59:29.128Z,88.03
2022-11-29T06:00:20.964Z,65.10
2022-11-29T06:01:29.845Z,67.45
2022-11-29T06:02:27.034Z,63.03
2022-11-29T06:03:44.892Z,78.35
2022-11-29T06:04:57.569Z,88.63
2022-11-29T06:05:57.409Z,95.45
2022-11-29T06:07:14.806Z,61.08
2022-11-29T06:08:15.844Z,59.92
2022-11-29T06:09:27.562Z,82.63
2022-11-29T06:10:23.456Z,83.10
2022-11-29T06:11:44.424Z,90.13
2022-11-29T06:12:36.323Z,72.53
2022-11-29T06:13:45.362Z,67.40
2022-11-29T06:15:01.310Z,78.65
2022-11-29T06:16:04.798Z,90.18
2022-11-29T06:17:07.423Z,76.35
2022-11-29T06:18:17.252Z,82.50
2022-11-29T06:19:33.076Z,84.82
2022-11-29T06:20:43.474Z,92.90
2022-11-29T06:22:05.764Z,79.30
2022-11-29T06:23:16.335Z,64.30
2022-11-29T06:24:36.063Z,63.60
2022-11-29T06:25:40.857Z,91.95
2022-11-29T06:26:58.190Z,84.90
2022-11-29T06:28:24.187Z,65.85
2022-11-29T06:29:40.165Z,67.60
2022-11-29T06:30:52.197Z,74.90
2022-11-29T06:31:48.122Z,80.75
2022-11-29T06:33:12.683Z,71.22
2022-11-29T06:34:33.952Z,62.80
2022-11-29T06:35:38.000Z,68.72
2022-11-29T06:36:39.746Z,76.80
2022-11-29T06:37:40.097Z,68.88
2022-11-29T06:38:31.727Z,66.88
2022-11-29T06:39:23.519Z,63.63
2022-11-29T06:40:16.462Z,79.57
2022-11-29T06:41:14.093Z,69.57
2022-11-29T06:42:05.631Z,77.22
2022-11-29T06:42:57.119Z,70.53
2022-11-29T06:43:49.107Z,72.20
2022-11-29T06:44:40.964Z,59.13
2022-11-29T06:45:32.817Z,71.10
2022-11-29T06:46:47.079Z,69.70
2022-11-29T06:47:51.033Z,70.07
2022-11-29T06:48:53.136Z,67.15
2022-11-29T06:49:51.016Z,68.90
2022-11-29T06:51:07.199Z,73.97
2022-11-29T06:52:07.884Z,61.40
2022-11-29T06:53:22.354Z,65.80
2022-11-29T06:54:26.133Z,72.35
2022-11-29T06:55:32.641Z,65.80
2022-11-29T06:56:30.113Z,66.25
2022-11-29T06:57:42.118Z,69.57
2022-11-29T06:58:50.031Z,63.92
2022-11-29T07:00:11.629Z,76.80
2022-11-29T07:01:12.810Z,64.70
2022-11-29T07:02:38.213Z,71.75
2022-11-29T07:03:43.096Z,58.25
2022-11-29T07:05:19.272Z,61.00
2022-11-29T07:06:22.016Z,54.30
2022-11-29T07:07:18.554Z,101.00
2022-11-29T07:08:19.819Z,79.90
2022-11-29T07:09:15.972Z,64.38
2022-11-29T07:10:15.220Z,74.75
2022-11-29T07:11:07.137Z,75.82
2022-11-29T07:11:58.906Z,87.35
2022-11-29T07:12:51.377Z,75.57
2022-11-29T07:13:43.147Z,80.03
2022-11-29T07:14:35.678Z,68.72
2022-11-29T07:15:28.161Z,66.22
2022-11-29T07:16:36.989Z,71.15
2022-11-29T07:17:42.810Z,74.78
2022-11-29T07:18:41.242Z,60.88
2022-11-29T07:19:55.691Z,66.32
2022-11-29T07:21:08.071Z,55.60
2022-11-29T07:22:10.758Z,52.20
2022-11-29T07:23:35.901Z,66.97
2022-11-29T07:25:05.930Z,61.10
2022-11-29T07:26:21.795Z,53.92
2022-11-29T07:27:27.793Z,60.72
2022-11-29T07:28:30.995Z,71.10
2022-11-29T07:29:28.369Z,57.05
2022-11-29T07:30:28.200Z,68.97
2022-11-29T07:31:22.586Z,69.03
2022-11-29T07:32:30.694Z,68.53
2022-11-29T07:33:52.222Z,71.10
2022-11-29T07:34:58.768Z,62.95
2022-11-29T07:36:16.487Z,67.80
2022-11-29T07:37:19.976Z,62.97
2022-11-29T07:38:26.816Z,62.05
2022-11-29T07:39:43.983Z,63.08
2022-11-29T07:40:58.782Z,67.07
2022-11-29T07:42:06.189Z,65.10
2022-11-29T07:43:03.521Z,74.43
2022-11-29T07:44:24.429Z,70.40
2022-11-29T07:45:29.150Z,64.03
2022-11-29T07:46:20.660Z,62.53
2022-11-29T07:47:12.934Z,77.18
2022-11-29T07:48:05.117Z,77.80
2022-11-29T07:48:56.660Z,70.55
2022-11-29T07:49:48.149Z,66.13
2022-11-29T07:50:40.825Z,68.15
2022-11-29T07:51:32.321Z,69.32
2022-11-29T07:52:23.848Z,76.05
2022-11-29T07:53:20.620Z,68.28
2022-11-29T07:54:17.400Z,71.03
2022-11-29T07:55:20.180Z,72.15
2022-11-29T07:56:12.547Z,67.25
2022-11-29T07:57:04.017Z,68.25
2022-11-29T07:57:56.675Z,74.22
2022-11-29T07:58:48.206Z,81.88
2022-11-29T07:59:39.707Z,80.20
2022-11-29T08:00:31.179Z,68.18
2022-11-29T08:01:22.696Z,82.60
2022-11-29T08:02:14.227Z,79.13
2022-11-29T08:03:06.067Z,83.72
2022-11-29T08:03:57.596Z,81.05
2022-11-29T08:04:49.190Z,77.32
2022-11-29T08:05:45.871Z,75.13
2022-11-29T08:06:37.764Z,80.55
2022-11-29T08:07:29.912Z,84.28
2022-11-29T08:08:21.586Z,74.35
2022-11-29T08:09:13.130Z,86.28
2022-11-29T08:10:11.647Z,82.55
2022-11-29T08:11:11.866Z,78.70
2022-11-29T08:12:03.660Z,71.90
2022-11-29T08:12:55.407Z,69.50
2022-11-29T08:13:46.898Z,65.78
2022-11-29T08:14:38.432Z,75.88
2022-11-29T08:15:30.362Z,69.75
2022-11-29T08:16:21.881Z,69.97
2022-11-29T08:17:13.365Z,68.88
2022-11-29T08:18:04.917Z,73.35
2022-11-29T08:18:56.507Z,66.07
2022-11-29T08:19:48.003Z,73.95
2022-11-29T08:20:41.607Z,80.95
2022-11-29T08:21:33.098Z,83.55
2022-11-29T08:22:24.593Z,73.55
2022-11-29T08:23:16.086Z,74.75
2022-11-29T08:24:07.642Z,69.70
2022-11-29T08:24:59.907Z,73.30
2022-11-29T08:25:58.256Z,75.95
2022-11-29T08:26:50.011Z,79.32
2022-11-29T08:27:41.543Z,70.03
2022-11-29T08:28:33.045Z,67.13
2022-11-29T08:29:25.188Z,67.43
2022-11-29T08:30:18.711Z,71.57
2022-11-29T08:31:12.797Z,74.55
2022-11-29T08:32:04.556Z,75.20
2022-11-29T08:32:56.062Z,81.43
2022-11-29T08:33:47.967Z,80.63
2022-11-29T08:34:39.518Z,77.03
2022-11-29T08:35:31.209Z,78.28
2022-11-29T08:36:22.775Z,78.13
2022-11-29T08:37:14.285Z,74.32
2022-11-29T08:38:05.771Z,82.18
2022-11-29T08:39:03.514Z,75.28
2022-11-29T08:39:59.150Z,80.85
2022-11-29T08:40:50.637Z,79.82
2022-11-29T08:41:42.532Z,73.53
2022-11-29T08:42:34.009Z,81.70
2022-11-29T08:43:25.495Z,93.18
2022-11-29T08:44:17.020Z,81.03
2022-11-29T08:45:09.731Z,71.25
2022-11-29T08:46:01.510Z,95.18
2022-11-29T08:47:11.471Z,86.35
2022-11-29T08:48:02.948Z,77.13
2022-11-29T08:48:54.637Z,82.63
2022-11-29T08:50:01.189Z,75.93
2022-11-29T08:50:54.403Z,83.55
2022-11-29T08:51:45.878Z,74.18
2022-11-29T08:52:57.656Z,76.50
2022-11-29T08:53:51.602Z,72.68
2022-11-29T08:54:43.503Z,72.05
2022-11-29T08:55:39.811Z,68.18
2022-11-29T08:57:16.480Z,77.00
2022-11-29T08:57:42.816Z,71.40
2022-11-29T08:58:34.312Z,82.03
2022-11-29T08:59:25.801Z,69.70
2022-11-29T09:00:18.335Z,68.15
2022-11-29T09:01:15.044Z,82.55
2022-11-29T09:02:06.826Z,72.93
2022-11-29T09:03:18.878Z,71.35
2022-11-29T09:04:10.916Z,71.03
2022-11-29T09:05:02.649Z,64.20
2022-11-29T09:05:50.281Z,67.35
2022-11-29T09:06:45.559Z,64.78
2022-11-29T09:07:37.744Z,74.00
2022-11-29T09:08:29.327Z,70.43
2022-11-29T09:09:20.856Z,80.47
2022-11-29T09:10:12.743Z,59.65
2022-11-29T09:11:15.175Z,55.53
2022-11-29T09:12:08.570Z,65.93
2022-11-29T09:13:00.054Z,54.65
2022-11-29T09:13:53.771Z,59.50
2022-11-29T09:14:45.715Z,55.67
2022-11-29T09:15:38.770Z,61.60
2022-11-29T09:16:35.933Z,42.95
2022-11-29T09:17:27.581Z,43.35
2022-11-29T09:18:19.068Z,51.15
2022-11-29T09:19:10.643Z,56.00
2022-11-29T09:20:02.185Z,46.90
2022-11-29T09:20:53.755Z,46.65
2022-11-29T09:21:45.230Z,41.40
2022-11-29T09:22:36.725Z,49.05
2022-11-29T09:23:28.424Z,44.80
2022-11-29T09:24:20.619Z,40.45
2022-11-29T09:25:12.119Z,41.78
2022-11-29T09:26:04.825Z,40.80
2022-11-29T09:26:56.302Z,40.67
2022-11-29T09:27:47.779Z,51.78
2022-11-29T09:28:39.307Z,44.50
2022-11-29T09:29:30.775Z,49.75
2022-11-29T09:30:23.838Z,41.25
2022-11-29T09:31:16.862Z,36.85
2022-11-29T09:32:08.532Z,41.25
2022-11-29T09:33:02.685Z,39.50
2022-11-29T09:33:55.136Z,45.22
2022-11-29T09:34:47.028Z,37.50
2022-11-29T09:35:38.799Z,36.85
2022-11-29T09:36:30.857Z,45.58
2022-11-29T09:37:22.332Z,41.33
2022-11-29T09:38:14.514Z,39.10
2022-11-29T09:39:06.362Z,34.30
2022-11-29T09:39:57.858Z,39.47
2022-11-29T09:41:03.071Z,33.40
2022-11-29T09:42:18.583Z,33.25
2022-11-29T09:43:27.867Z,31.63
2022-11-29T09:44:45.809Z,29.60
2022-11-29T09:45:43.030Z,32.28
2022-11-29T09:46:37.340Z,30.27
2022-11-29T09:48:01.117Z,33.55
2022-11-29T09:49:20.623Z,30.90
2022-11-29T09:50:34.560Z,35.38
2022-11-29T09:51:44.724Z,28.95
2022-11-29T09:53:07.051Z,28.77
2022-11-29T09:54:05.644Z,25.58
2022-11-29T09:55:05.132Z,30.87
2022-11-29T09:56:25.696Z,32.83
2022-11-29T09:57:19.180Z,27.48
2022-11-29T09:58:15.280Z,29.73
2022-11-29T09:59:12.115Z,35.95
2022-11-29T10:00:07.261Z,31.35
2022-11-29T10:01:09.262Z,27.80
2022-11-29T10:02:20.920Z,27.10
2022-11-29T10:03:23.208Z,27.45
2022-11-29T10:04:18.997Z,27.10
2022-11-29T10:05:19.528Z,27.42
2022-11-29T10:06:24.186Z,32.10
2022-11-29T10:07:27.994Z,29.65
2022-11-29T10:08:52.568Z,25.40
2022-11-29T10:10:08.555Z,31.33
2022-11-29T10:11:32.597Z,33.65
2022-11-29T10:12:39.433Z,31.15
2022-11-29T10:13:36.002Z,29.80
2022-11-29T10:14:35.281Z,30.52
2022-11-29T10:15:29.560Z,27.33
2022-11-29T10:16:45.505Z,24.98
2022-11-29T10:17:42.787Z,27.25
2022-11-29T10:19:03.286Z,30.00
2022-11-29T10:20:04.496Z,30.45
2022-11-29T10:20:58.605Z,28.70
2022-11-29T10:22:00.728Z,31.67
2022-11-29T10:23:04.620Z,27.08
2022-11-29T10:24:04.575Z,31.45
2022-11-29T10:25:01.381Z,29.15
2022-11-29T10:25:55.323Z,30.08
2022-11-29T10:26:46.906Z,34.83
2022-11-29T10:27:40.334Z,30.13
2022-11-29T10:28:33.495Z,23.20
2022-11-29T10:29:25.145Z,32.10
2022-11-29T10:30:17.055Z,32.15
2022-11-29T10:31:26.696Z,29.15
2022-11-29T10:32:21.199Z,31.88
2022-11-29T10:33:21.048Z,28.65
2022-11-29T10:34:21.883Z,30.63
2022-11-29T10:35:16.144Z,28.55
2022-11-29T10:36:22.121Z,31.58
2022-11-29T10:37:17.818Z,27.67
2022-11-29T10:39:39.479Z,35.15
2022-11-29T10:40:34.929Z,22.45
2022-11-29T10:41:26.989Z,21.42
2022-11-29T10:42:39.602Z,25.63
2022-11-29T10:43:31.466Z,29.58
2022-11-29T10:44:24.511Z,26.13
2022-11-29T10:45:24.587Z,30.88
2022-11-29T10:46:30.105Z,23.95
2022-11-29T10:47:21.685Z,22.17
2022-11-29T10:48:17.225Z,24.27
2022-11-29T10:49:17.554Z,24.02
2022-11-29T10:50:21.274Z,25.42
2022-11-29T10:51:17.296Z,24.08
2022-11-29T10:52:19.425Z,25.63
2022-11-29T10:53:14.807Z,30.38
2022-11-29T10:54:41.554Z,31.65
2022-11-29T10:55:43.216Z,26.55
2022-11-29T10:56:37.660Z,26.52
2022-11-29T10:57:29.141Z,23.08
2022-11-29T10:58:28.254Z,23.48
2022-11-29T10:59:30.604Z,25.05
2022-11-29T11:00:22.198Z,26.85
2022-11-29T11:01:15.527Z,27.98
2022-11-29T11:02:19.103Z,25.58
2022-11-29T11:03:17.077Z,27.67
2022-11-29T11:04:15.449Z,28.67
2022-11-29T11:05:19.412Z,24.65
2022-11-29T11:06:17.450Z,26.95
2022-11-29T11:07:23.577Z,33.72
2022-11-29T11:08:18.296Z,26.38
2022-11-29T11:09:29.742Z,24.27
2022-11-29T11:10:27.106Z,21.27
2022-11-29T11:11:28.209Z,24.30
2022-11-29T11:12:25.930Z,26.33
2022-11-29T11:13:29.170Z,24.27
2022-11-29T11:14:29.440Z,30.27
2022-11-29T11:15:29.781Z,31.33
2022-11-29T11:16:24.790Z,30.73
2022-11-29T11:17:34.155Z,29.00
2022-11-29T11:19:30.082Z,24.30
2022-11-29T11:20:24.295Z,27.55
2022-11-29T11:21:20.008Z,25.30
2022-11-29T11:22:21.982Z,25.73
2022-11-29T11:23:31.312Z,26.70
2022-11-29T11:25:30.250Z,22.23
2022-11-29T11:26:22.936Z,23.65
2022-11-29T11:27:32.630Z,24.45
2022-11-29T11:28:28.214Z,26.15
2022-11-29T11:29:23.638Z,23.67
2022-11-29T11:30:27.508Z,28.23
2022-11-29T11:31:32.755Z,28.52
2022-11-29T11:32:24.258Z,32.30
2022-11-29T11:33:30.223Z,30.23
2022-11-29T11:34:29.142Z,31.77
2022-11-29T11:35:24.270Z,31.17
2022-11-29T11:36:27.332Z,27.35
2022-11-29T11:37:29.854Z,26.48
2022-11-29T11:38:21.331Z,30.15
2022-11-29T11:39:19.120Z,28.38
2022-11-29T11:40:27.119Z,31.35
2022-11-29T11:41:21.546Z,31.73
2022-11-29T11:42:34.674Z,29.23
2022-11-29T11:43:26.233Z,26.33
2022-11-29T11:44:49.777Z,25.75
2022-11-29T11:45:41.396Z,29.10
2022-11-29T11:46:52.044Z,25.35
2022-11-29T11:47:55.382Z,24.85
2022-11-29T11:48:47.299Z,29.77
2022-11-29T11:49:53.893Z,25.80
2022-11-29T11:50:54.384Z,29.95
2022-11-29T11:51:45.886Z,27.17
2022-11-29T11:52:42.009Z,28.90
2022-11-29T11:53:38.485Z,30.20
2022-11-29T11:54:31.097Z,24.45
2022-11-29T11:55:23.160Z,26.50
2022-11-29T11:56:14.858Z,26.08
2022-11-29T11:57:17.171Z,24.92
2022-11-29T11:58:18.921Z,27.05
2022-11-29T11:59:19.960Z,28.67
2022-11-29T12:01:02.356Z,30.67
2022-11-29T12:01:49.014Z,26.35
2022-11-29T12:02:40.960Z,22.85
2022-11-29T12:03:35.462Z,31.95
2022-11-29T12:04:34.748Z,32.17
2022-11-29T12:05:26.275Z,23.20
2022-11-29T12:06:29.887Z,27.27
2022-11-29T12:08:06.270Z,27.77
2022-11-29T12:08:49.332Z,26.80
2022-11-29T12:09:46.878Z,28.40
2022-11-29T12:10:40.358Z,24.17
2022-11-29T12:11:41.205Z,30.60
2022-11-29T12:12:38.922Z,30.65
2022-11-29T12:13:33.846Z,23.33
2022-11-29T12:14:28.376Z,26.95
2022-11-29T12:15:36.141Z,26.35
2022-11-29T12:16:37.617Z,27.38
2022-11-29T12:17:34.983Z,27.27
2022-11-29T12:19:24.912Z,28.42
2022-11-29T12:20:33.877Z,24.58
2022-11-29T12:21:31.637Z,20.52
2022-11-29T12:22:30.669Z,24.98
2022-11-29T12:23:32.954Z,26.70
2022-11-29T12:24:39.006Z,25.40
2022-11-29T12:25:38.145Z,29.08
2022-11-29T12:26:58.528Z,28.98
2022-11-29T12:27:51.566Z,25.90
2022-11-29T12:28:44.920Z,30.38
2022-11-29T12:29:36.491Z,29.50
2022-11-29T12:30:28.257Z,29.60
2022-11-29T12:31:34.687Z,29.00
2022-11-29T12:32:48.847Z,31.92
2022-11-29T12:33:51.418Z,29.52
2022-11-29T12:35:08.718Z,28.58
2022-11-29T12:36:30.416Z,30.95
2022-11-29T12:37:39.159Z,27.45
2022-11-29T12:38:33.256Z,27.67
2022-11-29T12:39:37.071Z,26.38
2022-11-29T12:41:06.913Z,23.83
2022-11-29T12:42:26.083Z,27.23
2022-11-29T12:43:36.186Z,23.08
2022-11-29T12:44:30.686Z,25.42
2022-11-29T12:45:30.465Z,28.25
2022-11-29T12:46:27.491Z,29.73
2022-11-29T12:47:52.293Z,28.92
2022-11-29T12:49:04.195Z,25.70
2022-11-29T12:50:23.929Z,23.85
2022-11-29T12:51:49.374Z,30.27
2022-11-29T12:53:25.482Z,25.48
2022-11-29T12:54:29.072Z,25.02
2022-11-29T12:55:30.106Z,25.90
2022-11-29T12:56:30.360Z,28.60
2022-11-29T12:57:50.124Z,29.65
2022-11-29T12:58:59.927Z,30.33
2022-11-29T13:00:17.724Z,28.25
2022-11-29T13:01:27.895Z,29.50
2022-11-29T13:02:58.061Z,29.90
2022-11-29T13:04:27.001Z,33.03
2022-11-29T13:05:27.189Z,27.38
2022-11-29T13:06:32.425Z,27.27
2022-11-29T13:07:54.685Z,27.92
2022-11-29T13:08:51.139Z,27.70
2022-11-29T13:10:18.077Z,29.23
2022-11-29T13:11:48.457Z,28.75
2022-11-29T13:12:42.884Z,30.40
2022-11-29T13:13:42.605Z,31.38
2022-11-29T13:15:14.496Z,33.95
2022-11-29T13:16:25.101Z,30.85
2022-11-29T13:17:39.885Z,26.85
2022-11-29T13:18:57.519Z,32.58
2022-11-29T13:19:57.349Z,30.10
2022-11-29T13:20:51.764Z,30.48
2022-11-29T13:22:01.356Z,29.17
2022-11-29T13:24:16.800Z,26.30
2022-11-29T13:25:18.570Z,28.98
2022-11-29T13:26:12.438Z,27.73
2022-11-29T13:27:06.117Z,28.15
2022-11-29T13:28:02.505Z,27.98
2022-11-29T13:28:54.417Z,26.85